• Join FlightAware (Why Join?)
  • Login
  • US Flag 
07:59PM EDT


 

Airport Tracker/Info


-or-


 

Live Flight TrackerFlight Track Log ✈ GJS3706 ✈ 10-Feb-2014 ✈ KORD - KBTV

Flight Track Log - Related Links

Times and Time Zones

All times are in EST time to prevent confusion due to time zone crossing. See the GJS3706 flight status page for this flight to view local times or setup timezone preferences in your user account.

Time Position Orientation Groundspeed Altitude Reporting Facility
EST Latitude Longitude Course Direction KTS MPH feet Rate Location/Type
10:00PM 42.0167 -87.9333 86° East 147 169 2,700  Level Chicago TRACON
10:01PM 42.0500 -87.9000 37° Northeast 208 239 4,700 2,040 Climbing Chicago TRACON
10:02PM 42.1167 -87.8333 37° Northeast 257 296 7,300 2,460 Climbing Chicago TRACON
10:03PM 42.1838 -87.2987 66° East  Level FlightAware Approximate
10:03PM 42.1461 -87.7017 73° East 289 333 10,900  Level Chicago Center
10:04PM 42.2354 -87.1439 66° East  Level FlightAware Approximate
10:04PM 42.1694 -87.5914 74° East 303 349 12,900  Level Chicago Center
10:05PM 42.2671 -86.9916 86° East  Level FlightAware Approximate
10:05PM 42.1967 -87.4617 74° East 349 402 14,400  Level Chicago Center
10:06PM 42.2253 -87.3239 74° East 375 432 16,500 1,620 Climbing Chicago Center
10:07PM 42.2564 -87.1800 74° East 394 453 17,700 1,380 Climbing Chicago Center
10:08PM 42.2828 -87.0297 77° East 409 471 19,400 1,800 Climbing Chicago Center
10:09PM 42.2889 -86.8314 88° East 436 502 21,500 1,620 Climbing Chicago Center
10:10PM 42.2950 -86.6786 87° East 441 507 22,800 1,380 Climbing Chicago Center
10:11PM 42.3019 -86.5175 87° East 453 521 24,400 1,440 Climbing Chicago Center
10:12PM 42.3086 -86.3472 87° East 457 526 25,800 1,320 Climbing Chicago Center
10:13PM 42.3150 -86.1397 88° East 464 534 27,100 1,080 Climbing Chicago Center
10:14PM 42.3147 -85.9594 90° East 480 552 28,100 960 Climbing Chicago Center
10:15PM 42.3133 -85.7761 91° East 489 563 29,100 960 Climbing Chicago Center
10:16PM 42.3100 -85.5908 91° East 495 570 30,100 960 Climbing Chicago Center
10:17PM 42.3075 -85.4039 91° East 499 574 31,100 780 Climbing Chicago Center
10:18PM 42.3047 -85.2153 91° East 504 580 31,800 600 Climbing Chicago Center
10:19PM 42.3011 -85.0217 91° East 514 592 32,400 600 Climbing Chicago Center
10:20PM 42.2969 -84.8244 92° East 525 604 33,100 900 Climbing Chicago Center
10:21PM 42.2911 -84.5875 92° East 530 610 34,300 900 Climbing Chicago Center
10:23PM 42.2994 -84.3914 87° East 528 608 35,000 660 Climbing Chicago Center
10:23PM 42.3303 -84.2489 74° East 523 602 35,500 540 Climbing Cleveland Center
10:24PM 42.3728 -84.0789 71° East 518 596 36,000 540 Climbing Cleveland Center
10:25PM 42.4194 -83.8908 71° East 525 604 36,700 720 Climbing Cleveland Center
10:26PM 42.4653 -83.7031 72° East 521 600 37,500 780 Climbing Cleveland Center
10:27PM 42.5100 -83.5161 72° East 515 593 38,400 720 Climbing Cleveland Center
10:28PM 42.5544 -83.3356 71° East 502 578 39,000 240 Climbing Cleveland Center
10:29PM 42.6061 -83.1172 72° East 503 579 39,000  Level Cleveland Center
10:30PM 42.6500 -82.9311 72° East 514 592 39,000  Level Cleveland Center
10:31PM 42.6947 -82.7436 72° East 519 597 39,000  Level Cleveland Center
10:32PM 42.7389 -82.5547 72° East 523 602 39,000  Level Cleveland Center
10:33PM 42.7825 -82.3667 72° East 523 602 39,000  Level Cleveland Center
10:35PM 42.8258 -82.1781 73° East 521 600 39,000  Level Cleveland Center
10:36PM 42.8778 -81.9503 73° East 524 603 39,000  Level Cleveland Center
10:37PM 42.9222 -81.7553 73° East 525 604 39,000  Level Cleveland Center
10:38PM 42.9642 -81.5636 73° East 522 601 39,000  Level Cleveland Center
10:39PM 43.0058 -81.3689 74° East 527 606 39,000  Level Cleveland Center
10:40PM 43.0483 -81.1772 73° East 525 604 39,000  Level Cleveland Center
10:41PM 43.0894 -80.9847 74° East 523 602 39,000  Level Cleveland Center
10:42PM 43.1319 -80.7908 73° East 527 606 39,000  Level Cleveland Center
10:43PM 43.1722 -80.5975 74° East 524 603 39,000  Level Cleveland Center
10:44PM 43.2133 -80.4033 74° East 526 605 39,000  Level Cleveland Center
10:45PM 43.2539 -80.2081 74° East 527 606 39,000  Level Cleveland Center
10:46PM 43.2956 -80.0136 74° East 522 601 39,000  Level Cleveland Center
10:47PM 43.3347 -79.8244 74° East 514 592 39,000  Level Cleveland Center
10:48PM 43.3742 -79.6283 74° East 528 608 39,000  Level Cleveland Center
10:49PM 43.4197 -79.3969 75° East 524 603 39,000  Level Cleveland Center
10:50PM 43.4592 -79.2003 74° East 531 611 39,000  Level Cleveland Center
10:51PM 43.4975 -79.0036 75° East 531 611 39,000  Level Cleveland Center
10:52PM 43.5350 -78.8097 75° East 522 601 39,000  Level Cleveland Center
10:53PM 43.5833 -78.5500 76° East 530 610 39,000  Level Toronto Center
10:54PM 43.6000 -78.3667 83° East 530 610 39,000  Level Toronto Center
10:55PM 43.6333 -78.1667 77° East 530 610 39,000  Level Toronto Center
10:56PM 43.6833 -77.9667 71° East 530 610 39,000  Level Toronto Center
10:57PM 43.7167 -77.7667 77° East 530 610 39,000  Level Toronto Center
10:58PM 43.7500 -77.5833 76° East 530 610 39,000  Level Toronto Center
10:59PM 43.7833 -77.3667 78° East 530 610 39,000  Level Toronto Center
11:00PM 43.8167 -77.1833 76° East 530 610 39,000  Level Toronto Center
11:01PM 43.8500 -76.9667 78° East 530 610 39,000  Level Toronto Center
11:02PM 43.9000 -76.7833 69° East 540 621 39,000  Level Toronto Center
11:03PM 43.9356 -76.6136 74° East 536 617 39,000  Level Boston Center
11:04PM 43.9703 -76.4131 76° East 536 617 39,000  Level Boston Center
11:05PM 44.0056 -76.2106 76° East 538 619 39,000 -720 Level Boston Center
11:06PM 44.0381 -76.0083 77° East 537 618 37,600 -1,680 Descending Boston Center
11:07PM 44.0694 -75.8189 77° East 513 590 35,700 -2,100 Descending Boston Center
11:08PM 44.1011 -75.6333 77° East 497 572 33,400 -2,520 Descending Boston Center
11:09PM 44.1308 -75.4442 78° East 498 573 30,700 -2,700 Descending Boston Center
11:10PM 44.1603 -75.2572 78° East 495 570 28,000 -2,760 Descending Boston Center
11:11PM 44.1900 -75.0750 77° East 486 559 25,200 -2,700 Descending Boston Center
11:12PM 44.2167 -74.9019 78° East 463 533 22,600 -2,520 Descending Boston Center
11:13PM 44.2417 -74.7372 78° East 437 503 20,200 -2,280 Descending Boston Center
11:14PM 44.2647 -74.5822 78° East 411 473 18,100 -1,140 Descending Boston Center
11:15PM 44.2878 -74.4356 78° East 389 448 18,000 -720 Descending Boston Center
11:16PM 44.3089 -74.2872 79° East 389 448 16,700 -1,620 Descending Boston Center
11:17PM 44.3314 -74.1386 78° East 392 451 14,800 -1,860 Descending Boston Center
11:18PM 44.3608 -74.0044 73° East 388 447 13,000 -1,740 Descending Boston Center
11:19PM 44.4019 -73.8797 65° Northeast 354 407 11,300 -1,440 Descending Boston Center
11:20PM 44.4389 -73.7747 64° Northeast 300 345 10,200 -1,380 Descending Boston Center
11:21PM 44.4689 -73.6733 67° East 285 328 8,600 -1,680 Descending Boston Center
11:22PM 44.4992 -73.5781 66° East 272 313 6,900 -1,740 Descending Boston Center
11:23PM 44.5286 -73.4844 66° East 264 304 5,200 -1,740 Descending Boston Center
11:24PM 44.5569 -73.3972 65° Northeast 249 287 3,500 -1,500 Descending Boston Center
11:25PM 44.5617 -73.3039 86° East 224 258 2,300 -720 Descending Boston Center
11:26PM 44.5314 -73.2472 127° Southeast 170 196 2,100 -600 Descending Boston Center
11:27PM 44.5053 -73.2053 131° Southeast 147 169 1,200 -900 Descending Boston Center
11:28PM 44.4808 -73.1656 131° Southeast 138 159 400 -840 Descending Boston Center